createdAt,value
2019-01-12T00:00:15.929Z,0
2019-01-12T00:01:27.315Z,0
2019-01-12T00:02:37.495Z,0
2019-01-12T00:03:47.585Z,0
2019-01-12T00:04:57.677Z,0
2019-01-12T00:06:08.073Z,0
2019-01-12T00:07:18.151Z,0
2019-01-12T00:08:28.228Z,0
2019-01-12T00:09:38.342Z,0
2019-01-12T00:10:47.894Z,0
2019-01-12T00:11:57.709Z,0
2019-01-12T00:13:07.549Z,0
2019-01-12T00:14:17.376Z,0
2019-01-12T00:15:27.455Z,0
2019-01-12T00:16:37.532Z,0
2019-01-12T00:17:47.181Z,0
2019-01-12T00:18:57.246Z,0
2019-01-12T00:20:07.458Z,0
2019-01-12T00:21:17.613Z,0
2019-01-12T00:22:27.690Z,0
2019-01-12T00:23:37.812Z,0
2019-01-12T00:24:48.408Z,0
2019-01-12T00:25:58.221Z,0
2019-01-12T00:27:09.020Z,0
2019-01-12T00:28:19.086Z,0
2019-01-12T00:29:28.968Z,0
2019-01-12T00:30:39.033Z,0
2019-01-12T00:31:49.081Z,0
2019-01-12T00:32:58.963Z,0
2019-01-12T00:34:09.829Z,0
2019-01-12T00:35:19.917Z,0
2019-01-12T00:36:30.042Z,0
2019-01-12T00:37:40.111Z,0
2019-01-12T00:38:50.230Z,0
2019-01-12T00:40:00.347Z,0
2019-01-12T00:41:10.173Z,0
2019-01-12T00:42:21.272Z,0
2019-01-12T00:43:31.076Z,0
2019-01-12T00:44:41.133Z,0
2019-01-12T00:45:51.442Z,0
2019-01-12T00:47:03.108Z,0
2019-01-12T00:48:13.006Z,0
2019-01-12T00:49:22.651Z,0
2019-01-12T00:50:32.758Z,0
2019-01-12T00:51:42.581Z,0
2019-01-12T00:52:52.641Z,0
2019-01-12T00:54:02.722Z,0
2019-01-12T00:55:12.913Z,0
2019-01-12T00:56:22.990Z,0
2019-01-12T00:57:33.042Z,0
2019-01-12T00:58:43.096Z,0
2019-01-12T00:59:53.179Z,0
2019-01-12T01:01:03.240Z,0
2019-01-12T01:02:13.319Z,0
2019-01-12T01:03:23.126Z,0
2019-01-12T01:04:33.224Z,0
2019-01-12T01:05:42.767Z,0
2019-01-12T01:06:52.585Z,0
2019-01-12T01:08:02.755Z,0
2019-01-12T01:09:12.821Z,0
2019-01-12T01:10:22.944Z,0
2019-01-12T01:11:33.014Z,0
2019-01-12T01:12:43.140Z,0
2019-01-12T01:13:53.247Z,0
2019-01-12T01:15:03.310Z,0
2019-01-12T01:16:13.598Z,0
2019-01-12T01:17:23.675Z,0
2019-01-12T01:18:33.753Z,0
2019-01-12T01:19:43.815Z,0
2019-01-12T01:20:53.896Z,0
2019-01-12T01:22:03.744Z,0
2019-01-12T01:23:13.786Z,0
2019-01-12T01:24:23.586Z,0
2019-01-12T01:25:33.898Z,0
2019-01-12T01:26:43.794Z,0
2019-01-12T01:27:53.849Z,0
2019-01-12T01:29:05.721Z,0
2019-01-12T01:30:16.024Z,0
2019-01-12T01:31:26.096Z,0
2019-01-12T01:32:36.189Z,0
2019-01-12T01:33:46.300Z,0
2019-01-12T01:34:56.373Z,0
2019-01-12T01:36:06.232Z,0
2019-01-12T01:37:16.034Z,0
2019-01-12T01:38:26.083Z,0
2019-01-12T01:39:36.165Z,0
2019-01-12T01:40:45.969Z,0
2019-01-12T01:41:56.030Z,0
2019-01-12T01:43:06.156Z,0
2019-01-12T01:44:16.455Z,0
2019-01-12T01:45:26.271Z,0
2019-01-12T01:46:35.856Z,0
2019-01-12T01:47:45.632Z,0
2019-01-12T01:48:55.668Z,0
2019-01-12T01:50:06.715Z,0
2019-01-12T01:51:16.758Z,0
2019-01-12T01:52:26.571Z,0
2019-01-12T01:53:36.627Z,0
2019-01-12T01:54:52.708Z,0
2019-01-12T01:56:03.136Z,0
2019-01-12T01:57:13.062Z,0
2019-01-12T01:58:22.638Z,0
2019-01-12T01:59:32.565Z,0
2019-01-12T02:00:42.363Z,0
2019-01-12T02:01:52.413Z,0
2019-01-12T02:03:01.989Z,0
2019-01-12T02:04:12.019Z,0
2019-01-12T02:05:22.095Z,0
2019-01-12T02:06:31.996Z,0
2019-01-12T02:07:41.819Z,0
2019-01-12T02:08:52.173Z,0
2019-01-12T02:10:02.233Z,0
2019-01-12T02:11:12.023Z,0
2019-01-12T02:12:22.071Z,0
2019-01-12T02:13:31.914Z,0
2019-01-12T02:14:41.485Z,0
2019-01-12T02:15:51.289Z,0
2019-01-12T02:17:01.344Z,0
2019-01-12T02:18:11.153Z,0
2019-01-12T02:19:21.198Z,0
2019-01-12T02:20:31.236Z,0
2019-01-12T02:21:41.720Z,0
2019-01-12T02:22:51.780Z,0
2019-01-12T02:24:01.577Z,0
2019-01-12T02:25:11.630Z,0
2019-01-12T02:26:21.742Z,0
2019-01-12T02:27:31.888Z,0
2019-01-12T02:28:41.684Z,0
2019-01-12T02:29:51.487Z,0
2019-01-12T02:31:01.539Z,0
2019-01-12T02:32:11.335Z,0
2019-01-12T02:33:21.392Z,0
2019-01-12T02:34:31.713Z,0
2019-01-12T02:35:41.886Z,0
2019-01-12T02:36:51.974Z,0
2019-01-12T02:38:02.086Z,0
2019-01-12T02:39:11.932Z,0
2019-01-12T02:40:21.554Z,0
2019-01-12T02:41:31.375Z,0
2019-01-12T02:42:40.933Z,0
2019-01-12T02:43:50.479Z,0
2019-01-12T02:45:01.457Z,0
2019-01-12T02:46:11.544Z,0
2019-01-12T02:47:21.625Z,0
2019-01-12T02:48:31.693Z,0
2019-01-12T02:49:41.743Z,0
2019-01-12T02:50:51.542Z,0
2019-01-12T02:52:01.367Z,0
2019-01-12T02:53:11.438Z,0
2019-01-12T02:54:21.540Z,0
2019-01-12T02:55:31.608Z,0
2019-01-12T02:56:41.654Z,0
2019-01-12T02:57:51.701Z,0
2019-01-12T02:59:01.523Z,0
2019-01-12T03:00:11.854Z,0
2019-01-12T03:01:22.099Z,0
2019-01-12T03:02:32.169Z,0
2019-01-12T03:03:41.997Z,0
2019-01-12T03:35:45.174Z,0
2019-01-12T03:36:55.519Z,0
2019-01-12T03:38:08.085Z,0
2019-01-12T03:39:17.904Z,0
2019-01-12T03:40:27.989Z,0
2019-01-12T03:41:38.120Z,0
2019-01-12T03:42:48.163Z,0
2019-01-12T03:43:58.208Z,0
2019-01-12T03:45:08.625Z,0
2019-01-12T03:46:18.721Z,0
2019-01-12T03:47:28.799Z,0
2019-01-12T03:48:38.602Z,0
2019-01-12T03:49:48.392Z,0
2019-01-12T03:50:58.443Z,0
2019-01-12T03:52:08.567Z,0
2019-01-12T03:53:18.668Z,0
2019-01-12T03:54:28.727Z,0
2019-01-12T03:55:38.513Z,0
2019-01-12T03:56:48.560Z,0
2019-01-12T03:57:58.371Z,0
2019-01-12T03:59:08.482Z,0
2019-01-12T04:00:18.771Z,0
2019-01-12T04:01:28.592Z,0
2019-01-12T04:02:38.888Z,0
2019-01-12T04:03:48.693Z,0
2019-01-12T04:04:58.772Z,0
2019-01-12T04:06:08.841Z,0
2019-01-12T04:07:18.657Z,0
2019-01-12T04:08:28.700Z,0
2019-01-12T04:09:38.780Z,0
2019-01-12T04:10:48.838Z,0
2019-01-12T04:11:59.149Z,0
2019-01-12T04:13:09.187Z,0
2019-01-12T04:14:19.249Z,0
2019-01-12T04:15:29.328Z,0
2019-01-12T04:16:39.532Z,0
2019-01-12T04:17:49.597Z,0
2019-01-12T04:18:59.404Z,0
2019-01-12T04:20:09.210Z,0
2019-01-12T04:21:19.274Z,0
2019-01-12T04:22:29.393Z,0
2019-01-12T04:23:39.462Z,0
2019-01-12T04:24:49.527Z,0
2019-01-12T04:25:59.781Z,0
2019-01-12T04:27:09.838Z,0
2019-01-12T04:28:19.979Z,0
2019-01-12T04:29:30.066Z,0
2019-01-12T04:30:40.105Z,0
2019-01-12T04:31:50.209Z,0
2019-01-12T04:32:59.999Z,0
2019-01-12T04:34:10.145Z,0
2019-01-12T04:35:20.274Z,0
2019-01-12T04:36:30.354Z,0
2019-01-12T04:37:40.639Z,0
2019-01-12T04:38:56.813Z,0
2019-01-12T04:40:07.571Z,0
2019-01-12T04:41:17.925Z,0
2019-01-12T04:42:27.469Z,0
2019-01-12T04:43:37.541Z,0
2019-01-12T04:44:47.623Z,0
2019-01-12T04:45:57.683Z,0
2019-01-12T04:47:07.531Z,0
2019-01-12T04:48:17.591Z,0
2019-01-12T04:49:27.687Z,0
2019-01-12T04:50:37.773Z,0
2019-01-12T04:51:47.834Z,0
2019-01-12T04:52:58.134Z,0
2019-01-12T04:54:08.230Z,0
2019-01-12T04:55:18.312Z,0
2019-01-12T04:56:28.420Z,0
2019-01-12T04:57:38.391Z,0
2019-01-12T04:58:48.464Z,0
2019-01-12T04:59:58.647Z,0
2019-01-12T05:01:08.851Z,0
2019-01-12T05:02:18.690Z,0
2019-01-12T05:03:28.813Z,0
2019-01-12T05:04:38.921Z,0
2019-01-12T05:05:49.351Z,0
2019-01-12T05:06:59.429Z,0
2019-01-12T05:08:10.825Z,0
2019-01-12T05:09:20.921Z,0
2019-01-12T05:10:30.982Z,0
2019-01-12T05:11:41.741Z,0
2019-01-12T05:12:51.836Z,0
2019-01-12T05:14:01.885Z,0
2019-01-12T05:15:11.679Z,0
2019-01-12T05:16:21.714Z,0
2019-01-12T05:17:31.806Z,0
2019-01-12T05:18:41.855Z,0
2019-01-12T05:19:52.258Z,0
2019-01-12T05:21:02.088Z,0
2019-01-12T05:22:11.913Z,0
2019-01-12T05:23:21.200Z,0
2019-01-12T05:24:31.028Z,0
2019-01-12T05:25:48.692Z,0
2019-01-12T05:26:58.913Z,0
2019-01-12T05:28:08.986Z,0
2019-01-12T05:29:18.802Z,0
2019-01-12T05:30:28.625Z,0
2019-01-12T05:31:38.698Z,0
2019-01-12T05:32:48.809Z,0
2019-01-12T05:33:58.891Z,0
2019-01-12T05:35:08.988Z,0
2019-01-12T05:36:19.515Z,0
2019-01-12T05:37:29.634Z,0
2019-01-12T05:38:39.474Z,0
2019-01-12T05:39:49.268Z,0
2019-01-12T05:40:59.355Z,0
2019-01-12T05:42:09.417Z,0
2019-01-12T05:43:20.838Z,0
2019-01-12T05:44:30.632Z,0
2019-01-12T05:45:40.931Z,0
2019-01-12T05:46:50.733Z,0
2019-01-12T05:48:03.013Z,0
2019-01-12T05:49:13.160Z,0
2019-01-12T05:50:23.210Z,0
2019-01-12T05:51:33.097Z,0
2019-01-12T05:52:43.159Z,0
2019-01-12T05:53:52.969Z,0
2019-01-12T05:55:03.032Z,0
2019-01-12T05:56:12.857Z,0
2019-01-12T05:57:23.180Z,0
2019-01-12T05:58:33.264Z,0
2019-01-12T05:59:43.110Z,0
2019-01-12T06:00:53.155Z,0
2019-01-12T06:02:03.201Z,0
2019-01-12T06:03:12.995Z,0
2019-01-12T06:04:23.053Z,0
2019-01-12T06:05:32.856Z,0
2019-01-12T06:06:42.930Z,0
2019-01-12T06:07:52.966Z,0
2019-01-12T06:09:04.320Z,0
2019-01-12T06:10:14.786Z,0
2019-01-12T06:11:24.992Z,0
2019-01-12T06:12:34.798Z,0
2019-01-12T06:13:44.913Z,0
2019-01-12T06:14:54.705Z,0
2019-01-12T06:16:04.962Z,0
2019-01-12T06:17:15.018Z,0
2019-01-12T06:18:25.069Z,4
2019-01-12T06:19:35.139Z,4
2019-01-12T06:20:45.461Z,4
2019-01-12T06:21:55.533Z,4
2019-01-12T06:23:05.367Z,0
2019-01-12T06:24:15.419Z,4
2019-01-12T06:25:25.485Z,4
2019-01-12T06:26:35.024Z,4
2019-01-12T06:27:45.079Z,4
2019-01-12T06:28:55.151Z,4
2019-01-12T06:30:06.085Z,4
2019-01-12T06:31:16.199Z,8
2019-01-12T06:32:26.157Z,4
2019-01-12T06:33:35.984Z,8
2019-01-12T06:34:46.305Z,8
2019-01-12T06:35:56.360Z,12
2019-01-12T06:37:08.024Z,12
2019-01-12T06:38:18.060Z,12
2019-01-12T06:39:28.126Z,12
2019-01-12T06:40:37.912Z,12
2019-01-12T06:41:47.713Z,16
2019-01-12T06:42:57.778Z,20
2019-01-12T06:44:07.735Z,20
2019-01-12T06:45:18.107Z,20
2019-01-12T06:46:28.231Z,24
2019-01-12T06:47:38.694Z,24
2019-01-12T06:48:48.783Z,28
2019-01-12T06:49:58.901Z,36
2019-01-12T06:51:10.864Z,40
2019-01-12T06:52:21.026Z,44
2019-01-12T06:53:31.078Z,48
2019-01-12T06:54:41.388Z,52
2019-01-12T06:55:51.199Z,60
2019-01-12T06:57:01.261Z,60
2019-01-12T06:58:11.328Z,72
2019-01-12T06:59:21.131Z,80
2019-01-12T07:00:31.288Z,80
2019-01-12T07:01:41.351Z,80
2019-01-12T07:02:51.402Z,84
2019-01-12T07:04:01.465Z,80
2019-01-12T07:05:11.265Z,76
2019-01-12T07:06:20.854Z,76
2019-01-12T07:07:30.912Z,76
2019-01-12T07:08:41.025Z,76
2019-01-12T07:09:51.080Z,80
2019-01-12T07:11:01.125Z,84
2019-01-12T07:12:11.213Z,96
2019-01-12T07:13:21.252Z,104
2019-01-12T07:14:31.082Z,116
2019-01-12T07:15:41.998Z,124
2019-01-12T07:16:51.794Z,144
2019-01-12T07:18:08.592Z,172
2019-01-12T07:19:18.954Z,200
2019-01-12T07:20:29.277Z,208
2019-01-12T07:21:39.353Z,220
2019-01-12T07:22:51.241Z,224
2019-01-12T07:24:01.343Z,228
2019-01-12T07:25:11.524Z,228
2019-01-12T07:26:24.946Z,232
2019-01-12T07:27:34.750Z,240
2019-01-12T07:28:44.820Z,252
2019-01-12T07:29:54.876Z,244
2019-01-12T07:31:04.720Z,232
2019-01-12T07:32:15.104Z,248
2019-01-12T07:33:25.175Z,244
2019-01-12T07:34:35.250Z,224
2019-01-12T07:35:45.064Z,212
2019-01-12T07:36:55.112Z,192
2019-01-12T07:38:05.076Z,188
2019-01-12T07:39:14.696Z,192
2019-01-12T07:40:24.754Z,196
2019-01-12T07:41:34.841Z,212
2019-01-12T07:42:44.936Z,232
2019-01-12T07:43:54.979Z,236
2019-01-12T07:45:04.778Z,256
2019-01-12T07:46:14.851Z,268
2019-01-12T07:47:25.274Z,264
2019-01-12T07:48:35.343Z,260
2019-01-12T07:49:45.407Z,272
2019-01-12T07:50:55.215Z,320
2019-01-12T07:52:05.253Z,356
2019-01-12T07:53:15.103Z,352
2019-01-12T07:54:25.166Z,352
2019-01-12T07:55:35.279Z,348
2019-01-12T07:56:45.341Z,340
2019-01-12T07:57:55.511Z,356
2019-01-12T07:59:07.705Z,356
2019-01-12T08:00:18.439Z,352
2019-01-12T08:01:28.254Z,368
2019-01-12T08:02:38.330Z,404
2019-01-12T08:03:48.153Z,444
2019-01-12T08:04:57.960Z,444
2019-01-12T08:06:09.121Z,428
2019-01-12T08:07:19.189Z,444
2019-01-12T08:08:29.251Z,456
2019-01-12T08:09:39.311Z,468
2019-01-12T08:10:49.517Z,484
2019-01-12T08:11:59.595Z,500
2019-01-12T08:13:09.663Z,524
2019-01-12T08:14:19.752Z,564
2019-01-12T08:15:29.572Z,548
2019-01-12T08:16:39.373Z,516
2019-01-12T08:17:49.443Z,504
2019-01-12T08:18:59.500Z,484
2019-01-12T08:20:09.721Z,456
2019-01-12T08:21:19.582Z,436
2019-01-12T08:22:29.625Z,436
2019-01-12T08:23:39.634Z,424
2019-01-12T08:24:49.434Z,396
2019-01-12T08:25:59.347Z,376
2019-01-12T08:27:10.770Z,368
2019-01-12T08:28:20.839Z,352
2019-01-12T08:29:30.885Z,352
2019-01-12T08:30:40.998Z,340
2019-01-12T08:31:50.803Z,348
2019-01-12T08:33:00.604Z,352
2019-01-12T08:34:10.691Z,356
2019-01-12T08:35:20.758Z,388
2019-01-12T08:36:31.057Z,428
2019-01-12T08:37:40.880Z,468
2019-01-12T08:38:50.442Z,512
2019-01-12T08:40:02.522Z,560
2019-01-12T08:41:12.351Z,580
2019-01-12T08:42:22.453Z,620
2019-01-12T08:43:32.259Z,716
2019-01-12T08:44:42.056Z,780
2019-01-12T08:45:52.417Z,888
2019-01-12T08:47:03.709Z,976
2019-01-12T08:48:14.101Z,1008
2019-01-12T08:49:24.164Z,924
2019-01-12T08:50:34.255Z,876
2019-01-12T08:51:44.337Z,808
2019-01-12T08:52:54.403Z,788
2019-01-12T08:54:04.215Z,760
2019-01-12T08:55:14.290Z,716
2019-01-12T08:56:24.382Z,708
2019-01-12T08:57:34.181Z,724
2019-01-12T08:58:44.256Z,744
2019-01-12T08:59:54.069Z,736
2019-01-12T09:01:04.133Z,716
2019-01-12T09:02:14.196Z,732
2019-01-12T09:03:24.050Z,816
2019-01-12T09:04:34.204Z,940
2019-01-12T09:05:50.987Z,1100
2019-01-12T09:07:01.074Z,1088
2019-01-12T09:08:11.182Z,952
2019-01-12T09:09:21.275Z,880
2019-01-12T09:10:31.109Z,852
2019-01-12T09:11:40.935Z,772
2019-01-12T09:12:51.030Z,760
2019-01-12T09:14:01.800Z,812
2019-01-12T09:15:11.633Z,864
2019-01-12T09:16:21.709Z,876
2019-01-12T09:17:31.255Z,916
2019-01-12T09:18:41.343Z,892
2019-01-12T09:19:51.451Z,824
2019-01-12T09:21:01.532Z,772
2019-01-12T09:22:12.826Z,776
2019-01-12T09:23:22.892Z,800
2019-01-12T09:24:33.010Z,856
2019-01-12T09:25:42.835Z,892
2019-01-12T09:26:53.138Z,948
2019-01-12T09:28:05.573Z,920
2019-01-12T09:29:15.778Z,836
2019-01-12T09:30:25.893Z,744
2019-01-12T09:31:35.744Z,700
2019-01-12T09:32:45.592Z,676
2019-01-12T09:33:55.722Z,660
2019-01-12T09:35:07.835Z,656
2019-01-12T09:36:17.936Z,668
2019-01-12T09:37:28.363Z,688
2019-01-12T09:38:38.258Z,732
2019-01-12T09:39:48.364Z,796
2019-01-12T09:40:58.457Z,792
2019-01-12T09:42:08.312Z,784
2019-01-12T09:43:18.425Z,832
2019-01-12T09:44:28.511Z,824
2019-01-12T09:45:38.446Z,816
2019-01-12T09:46:48.282Z,820
2019-01-12T09:47:58.427Z,832
2019-01-12T09:49:11.141Z,840
2019-01-12T09:50:21.256Z,864
2019-01-12T09:51:31.357Z,864
2019-01-12T09:52:41.443Z,832
2019-01-12T09:53:51.268Z,848
2019-01-12T09:55:01.399Z,852
2019-01-12T09:56:11.523Z,864
2019-01-12T09:57:21.724Z,868
2019-01-12T09:58:31.857Z,816
2019-01-12T09:59:41.700Z,760
2019-01-12T10:00:51.877Z,732
2019-01-12T10:02:02.278Z,724
2019-01-12T10:03:12.367Z,716
2019-01-12T10:04:22.447Z,708
2019-01-12T10:05:32.592Z,680
2019-01-12T10:06:57.423Z,668
2019-01-12T10:08:10.591Z,652
2019-01-12T10:09:20.715Z,640
2019-01-12T10:10:31.126Z,652
2019-01-12T10:11:41.229Z,684
2019-01-12T10:12:51.498Z,728
2019-01-12T10:14:01.604Z,720
2019-01-12T10:15:11.471Z,728
2019-01-12T10:16:21.590Z,728
2019-01-12T10:17:31.692Z,696
2019-01-12T10:18:41.528Z,688
2019-01-12T10:19:51.624Z,684
2019-01-12T10:21:01.492Z,708
2019-01-12T10:22:11.612Z,692
2019-01-12T10:23:21.703Z,680
2019-01-12T10:24:31.560Z,708
2019-01-12T10:25:41.665Z,708
2019-01-12T10:26:51.515Z,684
2019-01-12T10:28:06.556Z,680
2019-01-12T10:29:16.646Z,736
2019-01-12T10:30:27.083Z,812
2019-01-12T10:31:37.217Z,892
2019-01-12T10:32:47.525Z,872
2019-01-12T10:33:57.394Z,868
2019-01-12T10:35:08.649Z,884
2019-01-12T10:36:18.629Z,956
2019-01-12T10:37:28.701Z,972
2019-01-12T10:38:38.786Z,952
2019-01-12T10:39:50.406Z,924
2019-01-12T10:41:00.300Z,908
2019-01-12T10:42:10.629Z,892
2019-01-12T10:43:20.723Z,904
2019-01-12T10:44:30.842Z,908
2019-01-12T10:45:41.374Z,920
2019-01-12T10:46:51.214Z,948
2019-01-12T10:48:01.371Z,920
2019-01-12T10:49:11.453Z,924
2019-01-12T10:50:21.277Z,968
2019-01-12T10:51:31.342Z,960
2019-01-12T10:52:41.445Z,896
2019-01-12T10:53:51.607Z,892
2019-01-12T10:55:01.691Z,980
2019-01-12T10:56:11.548Z,1036
2019-01-12T10:57:21.654Z,988
2019-01-12T10:58:31.548Z,892
2019-01-12T10:59:41.442Z,872
2019-01-12T11:00:51.507Z,868
2019-01-12T11:02:01.600Z,800
2019-01-12T11:03:11.679Z,796
2019-01-12T11:04:21.788Z,856
2019-01-12T11:05:31.890Z,972
2019-01-12T11:06:41.706Z,1000
2019-01-12T11:07:52.275Z,976
2019-01-12T11:09:05.615Z,900
2019-01-12T11:10:15.945Z,916
2019-01-12T11:11:26.036Z,1084
2019-01-12T11:12:36.169Z,1184
2019-01-12T11:13:46.252Z,1208
2019-01-12T11:14:55.541Z,996
2019-01-12T11:16:07.175Z,832
2019-01-12T11:17:17.272Z,816
2019-01-12T11:18:27.391Z,836
2019-01-12T11:19:37.464Z,832
2019-01-12T11:20:47.568Z,824
2019-01-12T11:21:57.434Z,808
2019-01-12T11:23:10.116Z,808
2019-01-12T11:24:20.186Z,828
2019-01-12T11:25:30.279Z,828
2019-01-12T11:26:40.111Z,832
2019-01-12T11:27:50.198Z,884
2019-01-12T11:29:00.347Z,940
2019-01-12T11:30:10.440Z,952
2019-01-12T11:31:26.950Z,992
2019-01-12T11:32:37.007Z,1016
2019-01-12T11:33:46.891Z,1036
2019-01-12T11:34:56.974Z,1036
2019-01-12T11:36:07.042Z,1000
2019-01-12T11:37:17.121Z,972
2019-01-12T11:38:27.202Z,1040
2019-01-12T11:39:37.014Z,1104
2019-01-12T11:40:46.848Z,1136
2019-01-12T11:41:56.940Z,1180
2019-01-12T11:43:06.537Z,1256
2019-01-12T11:44:16.604Z,1364
2019-01-12T11:45:26.407Z,1396
2019-01-12T11:46:36.485Z,1352
2019-01-12T11:47:46.874Z,1396
2019-01-12T11:48:56.949Z,1484
2019-01-12T11:50:07.058Z,1508
2019-01-12T11:51:17.119Z,1608
2019-01-12T11:52:27.234Z,1844
2019-01-12T11:53:37.303Z,1940
2019-01-12T11:54:47.380Z,1852
2019-01-12T11:55:57.478Z,1680
2019-01-12T11:57:07.558Z,1736
2019-01-12T11:58:17.930Z,1776
2019-01-12T11:59:28.221Z,1712
2019-01-12T12:00:38.562Z,1772
2019-01-12T12:01:48.636Z,1868
2019-01-12T12:02:58.976Z,1808
2019-01-12T12:04:09.131Z,1752
2019-01-12T12:05:19.777Z,1728
2019-01-12T12:06:30.154Z,1628
2019-01-12T12:07:40.296Z,1468
2019-01-12T12:08:50.442Z,1388
2019-01-12T12:10:00.527Z,1348
2019-01-12T12:11:10.693Z,1380
2019-01-12T12:12:20.770Z,1464
2019-01-12T12:13:30.834Z,1472
2019-01-12T12:14:40.918Z,1396
2019-01-12T12:15:51.234Z,1348
2019-01-12T12:17:03.564Z,1360
2019-01-12T12:18:13.651Z,1376
2019-01-12T12:19:23.724Z,1348
2019-01-12T12:20:33.818Z,1324
2019-01-12T12:21:43.973Z,1364
2019-01-12T12:22:53.803Z,1260
2019-01-12T12:24:05.898Z,1224
2019-01-12T12:25:15.978Z,1244
2019-01-12T12:26:26.295Z,1248
2019-01-12T12:27:36.387Z,1128
2019-01-12T12:28:46.203Z,1064
2019-01-12T12:29:56.073Z,932
2019-01-12T12:31:06.186Z,872
2019-01-12T12:32:16.671Z,852
2019-01-12T12:33:26.800Z,868
2019-01-12T12:34:36.912Z,844
2019-01-12T12:35:47.000Z,744
2019-01-12T12:36:57.097Z,740
2019-01-12T12:38:07.239Z,820
2019-01-12T12:39:17.334Z,896
2019-01-12T12:40:27.183Z,916
2019-01-12T12:41:37.266Z,912
2019-01-12T12:42:47.282Z,876
2019-01-12T12:43:57.360Z,896
2019-01-12T12:45:08.729Z,908
2019-01-12T12:46:18.549Z,912
2019-01-12T12:47:28.649Z,900
2019-01-12T12:48:38.945Z,860
2019-01-12T12:49:48.790Z,816
2019-01-12T12:50:58.636Z,804
2019-01-12T12:52:08.737Z,864
2019-01-12T12:53:18.836Z,952
2019-01-12T12:54:28.895Z,1016
2019-01-12T12:55:38.995Z,1048
2019-01-12T12:56:49.062Z,1060
2019-01-12T12:57:59.393Z,1032
2019-01-12T12:59:09.533Z,988
2019-01-12T13:00:20.098Z,968
2019-01-12T13:01:30.195Z,988
2019-01-12T13:02:40.271Z,1028
2019-01-12T13:03:49.637Z,1024
2019-01-12T13:04:59.547Z,988
2019-01-12T13:06:09.655Z,980
2019-01-12T13:07:19.546Z,1024
2019-01-12T13:08:29.612Z,1092
2019-01-12T13:09:39.797Z,1076
2019-01-12T13:10:49.950Z,1072
2019-01-12T13:12:00.275Z,1088
2019-01-12T13:13:10.417Z,1124
2019-01-12T13:14:20.586Z,1132
2019-01-12T13:15:30.746Z,1112
2019-01-12T13:16:40.854Z,1100
2019-01-12T13:17:50.943Z,1080
2019-01-12T13:19:01.665Z,1076
2019-01-12T13:20:11.748Z,1044
2019-01-12T13:21:21.839Z,1020
2019-01-12T13:22:31.685Z,1008
2019-01-12T13:23:41.772Z,1016
2019-01-12T13:24:51.592Z,1044
2019-01-12T13:26:02.475Z,1096
2019-01-12T13:27:12.544Z,1172
2019-01-12T13:28:22.615Z,1260
2019-01-12T13:29:32.713Z,1324
2019-01-12T13:30:42.785Z,1368
2019-01-12T13:31:52.898Z,1376
2019-01-12T13:33:04.174Z,1380
2019-01-12T13:34:13.974Z,1408
2019-01-12T13:35:24.110Z,1444
2019-01-12T13:36:34.202Z,1468
2019-01-12T13:37:44.062Z,1484
2019-01-12T13:38:54.165Z,1480
2019-01-12T13:40:04.234Z,1468
2019-01-12T13:41:14.572Z,1428
2019-01-12T13:42:24.899Z,1384
2019-01-12T13:43:34.983Z,1336
2019-01-12T13:44:45.076Z,1300
2019-01-12T13:45:55.192Z,1284
2019-01-12T13:47:07.496Z,1332
2019-01-12T13:48:17.600Z,1380
2019-01-12T13:49:27.731Z,1412
2019-01-12T13:50:37.798Z,1380
2019-01-12T13:51:47.876Z,1312
2019-01-12T13:52:58.009Z,1244
2019-01-12T13:54:08.127Z,1156
2019-01-12T13:55:18.274Z,1092
2019-01-12T13:56:28.295Z,1068
2019-01-12T13:57:38.405Z,1076
2019-01-12T13:58:55.034Z,1084
2019-01-12T14:00:05.414Z,1056
2019-01-12T14:01:15.400Z,968
2019-01-12T14:02:25.578Z,888
2019-01-12T14:03:35.881Z,844
2019-01-12T14:04:45.953Z,808
2019-01-12T14:05:55.828Z,780
2019-01-12T14:07:08.117Z,768
2019-01-12T14:08:18.199Z,748
2019-01-12T14:09:28.558Z,720
2019-01-12T14:10:38.653Z,684
2019-01-12T14:11:48.455Z,648
2019-01-12T14:12:58.532Z,608
2019-01-12T14:14:08.549Z,596
2019-01-12T14:15:18.135Z,604
2019-01-12T14:16:28.220Z,620
2019-01-12T14:17:38.052Z,652
2019-01-12T14:18:48.205Z,612
2019-01-12T14:19:58.089Z,600
2019-01-12T14:21:09.045Z,556
2019-01-12T14:22:18.877Z,528
2019-01-12T14:23:28.974Z,548
2019-01-12T14:24:38.570Z,528
2019-01-12T14:25:48.702Z,504
2019-01-12T14:26:59.060Z,456
2019-01-12T14:28:10.152Z,396
2019-01-12T14:29:20.252Z,352
2019-01-12T14:30:30.393Z,316
2019-01-12T14:31:40.748Z,300
2019-01-12T14:32:50.816Z,284
2019-01-12T14:34:00.987Z,280
2019-01-12T14:35:11.115Z,280
2019-01-12T14:36:20.763Z,268
2019-01-12T14:37:30.851Z,252
2019-01-12T14:38:41.509Z,240
2019-01-12T14:39:51.922Z,236
2019-01-12T14:41:02.016Z,236
2019-01-12T14:42:11.881Z,228
2019-01-12T14:43:21.982Z,224
2019-01-12T14:44:32.050Z,208
2019-01-12T14:45:42.128Z,200
2019-01-12T14:46:52.235Z,196
2019-01-12T14:48:02.398Z,196
2019-01-12T14:49:12.649Z,196
2019-01-12T14:50:22.781Z,180
2019-01-12T14:51:33.138Z,160
2019-01-12T14:52:43.325Z,140
2019-01-12T14:53:53.450Z,128
2019-01-12T14:55:03.637Z,120
2019-01-12T14:56:13.774Z,108
2019-01-12T14:57:23.957Z,104
2019-01-12T14:58:33.861Z,96
2019-01-12T14:59:44.078Z,96
2019-01-12T15:00:54.270Z,88
2019-01-12T15:02:04.153Z,84
2019-01-12T15:03:14.362Z,76
2019-01-12T15:04:24.207Z,72
2019-01-12T15:05:35.963Z,72
2019-01-12T15:06:46.321Z,76
2019-01-12T15:07:56.461Z,68
2019-01-12T15:09:08.993Z,68
2019-01-12T15:10:20.642Z,60
2019-01-12T15:11:30.985Z,56
2019-01-12T15:12:41.058Z,48
2019-01-12T15:13:51.146Z,44
2019-01-12T15:15:01.222Z,40
2019-01-12T15:16:11.413Z,36
2019-01-12T15:17:21.061Z,28
2019-01-12T15:18:31.710Z,28
2019-01-12T15:19:41.621Z,28
2019-01-12T15:20:51.691Z,24
2019-01-12T15:22:01.758Z,20
2019-01-12T15:23:11.846Z,16
2019-01-12T15:24:21.915Z,16
2019-01-12T15:25:32.078Z,16
2019-01-12T15:26:42.162Z,12
2019-01-12T15:27:52.220Z,12
2019-01-12T15:29:03.394Z,12
2019-01-12T15:30:13.522Z,8
2019-01-12T15:31:24.196Z,12
2019-01-12T15:32:33.829Z,8
2019-01-12T15:33:43.898Z,8
2019-01-12T15:34:53.769Z,8
2019-01-12T15:36:03.661Z,4
2019-01-12T15:37:13.854Z,4
2019-01-12T15:38:23.946Z,4
2019-01-12T15:39:33.769Z,4
2019-01-12T15:40:43.597Z,4
2019-01-12T15:41:53.432Z,0
2019-01-12T15:43:03.326Z,0
2019-01-12T15:44:13.434Z,4
2019-01-12T15:45:23.555Z,4
2019-01-12T15:46:33.676Z,4
2019-01-12T15:47:43.787Z,0
2019-01-12T15:48:53.878Z,0
2019-01-12T15:50:03.940Z,0
2019-01-12T15:51:14.016Z,0
2019-01-12T15:52:24.099Z,0
2019-01-12T15:53:34.203Z,0
2019-01-12T15:54:44.308Z,0
2019-01-12T15:55:54.414Z,0
2019-01-12T15:57:04.445Z,0
2019-01-12T15:58:20.891Z,0
2019-01-12T15:59:30.732Z,0
2019-01-12T16:00:40.821Z,0
2019-01-12T16:01:50.913Z,0
2019-01-12T16:03:00.995Z,0
2019-01-12T16:04:11.402Z,0
2019-01-12T16:05:21.517Z,0
2019-01-12T16:06:31.410Z,0
2019-01-12T16:07:41.479Z,0
2019-01-12T16:08:51.582Z,0
2019-01-12T16:10:04.022Z,0
2019-01-12T16:11:14.761Z,0
2019-01-12T16:12:25.011Z,0
2019-01-12T16:13:36.004Z,0
2019-01-12T16:14:46.115Z,0
2019-01-12T16:15:56.176Z,0
2019-01-12T16:17:07.600Z,0
2019-01-12T16:18:17.755Z,0
2019-01-12T16:19:27.852Z,0
2019-01-12T16:20:37.698Z,0
2019-01-12T16:21:47.757Z,0
2019-01-12T16:22:57.965Z,0
2019-01-12T16:24:08.104Z,0
2019-01-12T16:25:18.203Z,0
2019-01-12T16:26:28.334Z,0
2019-01-12T16:27:38.491Z,0
2019-01-12T16:28:48.338Z,0
2019-01-12T16:29:58.699Z,0
2019-01-12T16:31:10.179Z,0
2019-01-12T16:32:20.236Z,0
2019-01-12T16:33:29.817Z,0
2019-01-12T16:34:39.906Z,0
2019-01-12T16:35:50.034Z,0
2019-01-12T16:37:00.127Z,0
2019-01-12T16:38:10.764Z,0
2019-01-12T16:39:20.846Z,0
2019-01-12T16:40:30.927Z,0
2019-01-12T16:41:40.983Z,0
2019-01-12T16:42:51.343Z,0
2019-01-12T16:44:01.473Z,0
2019-01-12T16:45:11.544Z,0
2019-01-12T16:46:21.667Z,0
2019-01-12T16:47:31.496Z,0
2019-01-12T16:48:42.996Z,0
2019-01-12T16:49:53.070Z,0
2019-01-12T16:51:02.954Z,0
2019-01-12T16:52:13.337Z,0
2019-01-12T16:53:23.144Z,0
2019-01-12T16:54:33.756Z,0
2019-01-12T16:55:44.033Z,0
2019-01-12T16:56:54.116Z,0
2019-01-12T16:58:05.333Z,0
2019-01-12T16:59:15.477Z,0
2019-01-12T17:00:25.851Z,0
2019-01-12T17:01:35.935Z,0
2019-01-12T17:02:46.013Z,0
2019-01-12T17:03:56.226Z,0
2019-01-12T17:05:07.116Z,0
2019-01-12T17:06:17.302Z,0
2019-01-12T17:07:27.486Z,0